Logo AVAMET
Benvolgut visitant, si us plau, ingressa Recuperar contrasenya
AVAMET paisatges

Inforatge Castelló de la Plana Centre Urban

Dades diàries. Acumulats / Últims 30 dies disponibles

Data Temperatura (°C) Humitat rel. (%) Pressió rel. (hPa) Vent (km/h) Precipitació
Mínima Mitjana Màxima Amplitud
tèrmica
Mínima Mitjana Màxima Mínima Mitjana Màxima Predom. Mitjana Ràfega
màxima
Total
(mm)
Índex-n
Mínima Mitjana Màxima Mínima Mitjana Màxima n
0 a 1
P0 max
mm 5'
Dades mensuals acumulades fins l'últim dia disponible
04/2020 11,2 11,2 11,2 13,5 19,7 19,7 19,7 8,5 59 85 97 1.011 1.012 1.014   7,1 30,6 99,0
Dades anuals acumulades fins l'últim dia disponible
2020 1,5 8,0 15,2 12,5 10,3 17,6 26,1 24,6 25 75 97 997 1.023 1.036   4,8 72,4 289,4
Últims 30 dies disponibles
01-04-2020 11,2     13,5     19,7 8,5 59 85 97 1.011 1.012 1.014 NNE 7,1 30,6 99,0
31-03-2020 7,0     9,8     12,7 5,7 84 88 96 1.011 1.013 1.015 SE 6,8 43,5 59,4 0,34 2,20
30-03-2020 7,3     11,1     15,6 8,3 52 68 86 1.013 1.015 1.016 NNE 2,9 20,9 2,8
29-03-2020 8,4     15,0     21,6 13,2 37 61 82 1.014 1.017 1.020 W 7,1 29,0 0,0
28-03-2020 4,6     11,4     16,9 12,3 48 68 86 1.018 1.019 1.021 W 5,6 29,0 0,0
27-03-2020 5,7     10,3     13,9 8,2 56 72 86 1.014 1.016 1.018 NNE 5,6 29,0 0,0
26-03-2020 4,7     9,6     15,7 11,0 44 74 91 1.009 1.011 1.015 ENE 6,9 37,0 0,0
25-03-2020 7,2     9,7     12,3 5,1 66 81 89 1.015 1.018 1.020 NNE 2,9 22,5 2,6
24-03-2020 9,9     12,7     14,4 4,5 72 82 92 1.019 1.020 1.021 NE 12,2 40,2 11,4 0,33 1,70
23-03-2020 11,9     13,7     16,2 4,3 76 85 91 1.016 1.018 1.020 ENE 7,4 33,8 4,6 0,20
22-03-2020 10,6     13,0     15,7 5,1 71 83 92 1.013 1.014 1.017 ENE 2,7 19,3 4,6 0,33 0,60
21-03-2020 9,7     12,8     15,1 5,4 70 80 87 1.014 1.016 1.019 ENE 3,2 20,9 0,0
20-03-2020 11,3     13,3     16,2 4,9 69 80 86 1.019 1.020 1.022 ENE 6,1 30,6 0,0
19-03-2020 8,1     12,4     16,4 8,3 70 84 92 1.022 1.024 1.027 ENE 4,7 27,4 0,0
18-03-2020 10,6     13,5     15,9 5,3 73 82 92 1.027 1.028 1.030 ENE 4,3 29,0 0,0
17-03-2020 12,3     13,8     14,9 2,6 79 91 96 1.021 1.026 1.031 NE 6,9 41,8 21,4 0,37 1,30
16-03-2020 12,7     13,8     14,8 2,1 84 91 95 1.013 1.015 1.021 ENE 6,9 32,2 10,0 0,36 0,60
15-03-2020 8,9     13,6     17,8 8,9 65 83 92 1.017 1.019 1.022 W 3,5 25,7 0,0
14-03-2020 9,0     13,7     18,1 9,1 58 78 90 1.020 1.021 1.023 W 3,7 19,3 0,0
13-03-2020 9,4     14,1     18,4 9,0 62 76 91 1.020 1.021 1.023 ENE 4,8 29,0 0,0
12-03-2020 10,3     14,6     20,1 9,8 64 80 91 1.019 1.021 1.023 ENE 2,7 19,3 0,0
11-03-2020 8,8     15,1     20,8 12,0 49 69 87 1.023 1.024 1.025 ENE 3,7 17,7 0,0
10-03-2020 10,2     13,6     16,1 5,9 50 69 84 1.024 1.025 1.028 SE 2,9 16,1 0,0
09-03-2020 9,6     15,2     20,7 11,1 43 57 77 1.021 1.023 1.025 W 4,2 25,7 0,0
08-03-2020 7,6     13,5     18,9 11,3 43 63 77 1.022 1.024 1.026 W 4,7 20,9 0,0
07-03-2020 8,1     13,5     19,6 11,5 38 50 72 1.021 1.023 1.026 W 4,5 27,4 0,0
06-03-2020 10,7     14,1     18,2 7,5 29 47 71 1.013 1.015 1.022 WNW 8,2 48,3 0,0
05-03-2020 10,9     17,5     24,9 14,0 31 56 78 1.006 1.011 1.016 W 8,4 51,5 0,0
04-03-2020 12,7     16,9     21,7 9,0 57 67 79 1.015 1.017 1.019 ENE 4,0 17,7 0,0
03-03-2020 10,1     16,3     23,4 13,3 36 46 58 1.008 1.014 1.017 WNW 12,7 66,0 0,0
Últims 13 mesos disponibles
03/2020 4,6 9,5 15,2 13,6 12,3 17,8 24,9 20,3 46 71 91 1.006 1.018 1.028 ENE 6,1 72,4 116,8
02/2020 4,4 8,4 12,2 13,5 14,5 19,2 26,1 21,7 51 74 86 1.013 1.026 1.034 W 3,6 41,8 0,2
01/2020 1,5 6,0 11,8 10,4 10,3 15,7 22,0 20,5 66 78 90 1.019 1.026 1.033 W 4,4 69,2 73,4
12/2019 3,4 8,9 16,4 13,2 12,7 17,7 25,8 22,4 48 74 87 1.002 1.020 1.034 W 4,7 61,2 128,4
11/2019 4,6 10,5 17,9 15,0 15,3 20,1 28,2 23,6 43 58 80 998 1.011 1.019 W 5,8 57,9 5,0
10/2019 9,7 15,0 19,6 19,4 17,1 24,0 28,4 18,7 50 73 87 1.008 1.018 1.023 W 4,3 49,9 20,2
09/2019 15,0 19,4 22,2 23,3 21,6 27,2 31,3 16,3 52 73 84 1.011 1.019 1.027 S 5,5 55,6 62,8
08/2019 17,7 21,4 25,0 25,8 25,9 29,8 32,9 15,2 55 73 81 1.012 1.018 1.022 SSE 5,1 44,4 38,0
07/2019 19,6 21,4 24,1 26,3 27,5 30,2 34,5 14,9 50 67 78 1.007 1.016 1.023 SSE 5,4 35,4 11,4
06/2019 10,7 17,0 20,6 22,1 21,0 26,4 36,9 26,2 42 65 80 1.009 1.017 1.024 SE 5,8 55,6 0,0
05/2019 8,3 13,2 16,6 17,8 17,9 22,2 28,2 19,9 52 69 82 1.006 1.017 1.026 SSO 5,8 48,3 15,8
04/2019 6,6 10,7 13,8 15,1 15,7 19,6 26,8 20,2 46 65 88 1.000 1.014 1.027 SSO 7,5 64,8 55,2
03/2019 4,7 8,2 12,7 13,8 13,1 19,0 25,4 20,7 42 62 82 1.012 1.024 1.031 SSO 5,3 42,6 12,2
Tots els anys disponibles
2019 0,7 13,0 25,0 17,8 12,6 22,5 36,9 36,2 29 67 88 994 1.018 1.035 SSO 5,5 79,6 349,8
Temperatura (°C)
Humitat relativa (%)
Velocitat del vent i ràfega màxima (km/h)
Direcció del vent (°)
Pressió (hPa)
Precipitació (mm)
Nota sobre les dades: s'avisa a l'usuari de la provisionalitat i no oficialitat d'aquestes dades
Logo AVAMET blanc
Web allotjada a Sollutia
Llicència de Creative CommonsLa web d'AVAMET i els seus continguts estan subjectes a una llicència de
Reconeixement - No Comercial - Compartir igual
Últimes estacions:  Altea - Com. Regants (Soci), Almoines (Inforatge), Beniparrell (Inforatge), Albal (Inforatge), Almussafes - Parc Industrial (Inforatge), La Vilavella (Soci), la Serratella (soci) - - -